createdAt,value
2022-11-19T00:01:53.565Z,35.20
2022-11-19T00:04:25.814Z,28.80
2022-11-19T00:09:28.283Z,24.60
2022-11-19T00:12:17.696Z,22.20
2022-11-19T00:14:49.329Z,25.60
2022-11-19T00:17:21.306Z,21.40
2022-11-19T00:19:53.004Z,21.90
2022-11-19T00:22:24.635Z,18.50
2022-11-19T00:24:56.344Z,22.20
2022-11-19T00:27:28.111Z,19.60
2022-11-19T00:30:05.527Z,20.10
2022-11-19T00:32:43.807Z,22.90
2022-11-19T00:35:16.051Z,28.00
2022-11-19T00:37:47.700Z,24.70
2022-11-19T00:40:19.604Z,29.40
2022-11-19T00:43:05.196Z,26.00
2022-11-19T00:45:36.870Z,25.90
2022-11-19T00:48:08.960Z,23.10
2022-11-19T00:50:40.680Z,27.30
2022-11-19T00:53:12.349Z,30.80
2022-11-19T00:55:44.041Z,29.50
2022-11-19T00:58:16.547Z,26.30
2022-11-19T01:00:48.268Z,24.90
2022-11-19T01:03:19.936Z,31.10
2022-11-19T01:05:52.085Z,32.70
2022-11-19T01:08:25.137Z,34.10
2022-11-19T01:10:57.335Z,25.80
2022-11-19T01:13:38.300Z,35.30
2022-11-19T01:16:12.580Z,37.20
2022-11-19T01:18:45.683Z,35.10
2022-11-19T01:21:18.672Z,36.80
2022-11-19T01:23:50.728Z,35.50
2022-11-19T01:26:22.575Z,22.00
2022-11-19T01:28:54.893Z,34.20
2022-11-19T01:31:29.130Z,32.40
2022-11-19T01:34:01.259Z,33.20
2022-11-19T01:36:33.438Z,24.90
2022-11-19T01:39:05.119Z,31.80
2022-11-19T01:41:36.799Z,33.10
2022-11-19T01:44:09.544Z,32.30
2022-11-19T01:46:42.593Z,36.70
2022-11-19T01:49:19.088Z,32.50
2022-11-19T01:51:53.289Z,35.10
2022-11-19T01:54:30.037Z,32.80
2022-11-19T01:57:06.415Z,32.60
2022-11-19T01:59:39.545Z,32.50
2022-11-19T02:02:12.907Z,33.80
2022-11-19T02:04:46.676Z,31.60
2022-11-19T02:07:26.206Z,33.30
2022-11-19T02:09:59.305Z,32.50
2022-11-19T02:12:43.852Z,28.90
2022-11-19T02:15:32.592Z,35.30
2022-11-19T02:18:20.276Z,31.50
2022-11-19T02:21:05.232Z,42.70
2022-11-19T02:24:19.223Z,41.00
2022-11-19T02:27:15.019Z,41.80
2022-11-19T02:30:09.619Z,45.60
2022-11-19T02:33:04.734Z,40.50
2022-11-19T02:35:46.608Z,45.90
2022-11-19T02:38:35.585Z,44.10
2022-11-19T02:41:29.658Z,40.80
2022-11-19T02:44:23.059Z,32.70
2022-11-19T02:46:56.785Z,38.30
2022-11-19T02:49:32.997Z,38.30
2022-11-19T02:52:06.085Z,34.50
2022-11-19T02:54:37.899Z,41.20
2022-11-19T02:57:10.517Z,37.80
2022-11-19T03:00:04.397Z,37.90
2022-11-19T03:02:59.893Z,36.80
2022-11-19T03:05:36.778Z,35.20
2022-11-19T03:08:09.067Z,29.90
2022-11-19T03:10:51.510Z,36.10
2022-11-19T03:13:45.293Z,43.20
2022-11-19T03:16:40.601Z,38.00
2022-11-19T03:19:21.673Z,33.60
2022-11-19T03:21:58.809Z,39.40
2022-11-19T03:24:35.337Z,40.30
2022-11-19T03:27:14.759Z,39.80
2022-11-19T03:29:51.797Z,42.80
2022-11-19T03:32:27.325Z,43.90
2022-11-19T03:35:02.791Z,40.50
2022-11-19T03:37:38.901Z,46.40
2022-11-19T03:40:16.222Z,47.60
2022-11-19T03:42:51.536Z,50.10
2022-11-19T03:45:26.935Z,52.50
2022-11-19T03:48:02.615Z,53.30
2022-11-19T03:50:41.137Z,46.70
2022-11-19T03:53:13.219Z,52.90
2022-11-19T03:55:50.367Z,63.90
2022-11-19T03:58:24.555Z,56.80
2022-11-19T04:00:56.986Z,54.40
2022-11-19T04:03:29.189Z,49.70
2022-11-19T04:06:00.897Z,53.50
2022-11-19T04:08:33.067Z,58.40
2022-11-19T04:13:35.374Z,61.70
2022-11-19T04:16:07.672Z,48.90
2022-11-19T04:18:39.380Z,48.40
2022-11-19T04:21:11.413Z,52.80
2022-11-19T04:23:43.513Z,63.70
2022-11-19T04:26:15.519Z,57.00
2022-11-19T04:28:47.290Z,64.10
2022-11-19T04:31:19.012Z,54.60
2022-11-19T04:33:51.371Z,54.70
2022-11-19T04:36:23.221Z,48.40
2022-11-19T04:38:54.906Z,39.70
2022-11-19T04:41:26.685Z,59.20
2022-11-19T04:43:58.508Z,54.90
2022-11-19T04:46:30.270Z,48.60
2022-11-19T04:49:01.994Z,54.30
2022-11-19T04:51:34.243Z,45.40
2022-11-19T04:54:08.554Z,44.20
2022-11-19T04:56:41.192Z,52.30
2022-11-19T04:59:13.069Z,43.90
2022-11-19T05:01:44.815Z,50.70
2022-11-19T05:04:16.588Z,43.20
2022-11-19T05:06:48.675Z,43.40
2022-11-19T05:09:20.580Z,53.60
2022-11-19T05:11:52.610Z,74.70
2022-11-19T05:14:29.908Z,114.10
2022-11-19T05:17:02.363Z,182.50
2022-11-19T05:19:34.290Z,93.60
2022-11-19T05:22:06.216Z,85.60
2022-11-19T05:24:38.713Z,63.40
2022-11-19T05:29:40.834Z,49.90
2022-11-19T05:32:12.860Z,43.30
2022-11-19T05:34:44.690Z,55.00
2022-11-19T05:37:16.389Z,52.80
2022-11-19T05:39:48.233Z,70.90
2022-11-19T05:42:19.990Z,55.80
2022-11-19T05:44:51.792Z,62.70
2022-11-19T05:47:24.343Z,56.90
2022-11-19T05:49:56.937Z,57.50
2022-11-19T05:54:58.942Z,46.80
2022-11-19T05:57:30.681Z,55.20
2022-11-19T06:00:02.423Z,55.80
2022-11-19T06:02:44.041Z,56.60
2022-11-19T06:05:15.989Z,57.60
2022-11-19T06:07:47.738Z,59.60
2022-11-19T06:10:19.389Z,55.70
2022-11-19T06:12:51.621Z,45.60
2022-11-19T06:15:23.400Z,49.10
2022-11-19T06:17:57.032Z,51.70
2022-11-19T06:20:28.817Z,48.90
2022-11-19T06:23:00.441Z,49.60
2022-11-19T06:25:32.175Z,45.40
2022-11-19T06:28:03.960Z,42.70
2022-11-19T06:30:35.767Z,50.00
2022-11-19T06:33:07.687Z,45.60
2022-11-19T06:35:39.484Z,50.80
2022-11-19T06:38:11.176Z,45.00
2022-11-19T06:40:42.951Z,51.60
2022-11-19T06:43:14.651Z,50.00
2022-11-19T06:45:46.869Z,51.70
2022-11-19T06:48:18.724Z,45.50
2022-11-19T06:50:51.126Z,47.60
2022-11-19T06:53:23.574Z,47.90
2022-11-19T06:58:30.168Z,53.80
2022-11-19T07:01:02.181Z,49.10
2022-11-19T07:03:35.902Z,43.10
2022-11-19T07:06:08.363Z,57.40
2022-11-19T07:08:40.217Z,51.20
2022-11-19T07:11:27.108Z,47.80
2022-11-19T07:14:00.322Z,48.30
2022-11-19T07:16:34.228Z,48.50
2022-11-19T07:19:09.022Z,46.60
2022-11-19T07:21:40.747Z,40.40
2022-11-19T07:24:13.234Z,42.80
2022-11-19T07:26:45.370Z,42.60
2022-11-19T07:29:18.898Z,46.10
2022-11-19T07:31:53.442Z,47.00
2022-11-19T07:34:25.592Z,45.00
2022-11-19T07:36:57.517Z,46.00
2022-11-19T07:39:29.574Z,39.50
2022-11-19T07:42:19.168Z,34.00
2022-11-19T07:44:57.268Z,44.50
2022-11-19T07:50:01.052Z,41.20
2022-11-19T07:52:33.654Z,45.90
2022-11-19T07:57:36.784Z,44.50
2022-11-19T08:00:12.348Z,41.40
2022-11-19T08:02:47.675Z,41.70
2022-11-19T08:07:50.828Z,38.80
2022-11-19T08:10:31.416Z,36.10
2022-11-19T08:13:05.731Z,33.70
2022-11-19T08:15:38.027Z,38.40
2022-11-19T08:20:49.719Z,38.60
2022-11-19T08:23:24.025Z,35.60
2022-11-19T08:25:56.871Z,36.70
2022-11-19T08:28:30.180Z,33.80
2022-11-19T08:31:11.276Z,35.30
2022-11-19T08:33:44.130Z,33.80
2022-11-19T08:38:48.189Z,48.70
2022-11-19T08:41:37.484Z,43.60
2022-11-19T08:44:09.825Z,38.40
2022-11-19T08:46:42.661Z,40.20
2022-11-19T08:49:14.830Z,42.20
2022-11-19T08:51:46.516Z,47.50
2022-11-19T08:54:18.996Z,40.20
2022-11-19T08:59:22.322Z,45.10
2022-11-19T09:01:54.220Z,44.00
2022-11-19T09:04:26.502Z,46.80
2022-11-19T09:06:58.307Z,40.80
2022-11-19T09:09:30.824Z,46.30
2022-11-19T09:12:03.864Z,40.40
2022-11-19T09:14:37.925Z,49.30
2022-11-19T09:17:09.767Z,43.90
2022-11-19T09:19:41.562Z,41.50
2022-11-19T09:22:13.720Z,38.60
2022-11-19T09:24:48.516Z,40.00
2022-11-19T09:27:23.939Z,41.00
2022-11-19T09:29:56.925Z,39.60
2022-11-19T09:32:30.394Z,42.30
2022-11-19T09:35:04.104Z,37.40
2022-11-19T09:37:36.871Z,33.30
2022-11-19T09:42:53.359Z,40.60
2022-11-19T09:48:18.517Z,33.30
2022-11-19T09:50:55.001Z,41.50
2022-11-19T09:53:30.392Z,34.40
2022-11-19T09:56:03.702Z,34.00
2022-11-19T09:58:41.431Z,31.90
2022-11-19T10:01:17.449Z,36.80
2022-11-19T10:03:51.541Z,33.70
2022-11-19T10:06:28.888Z,33.80
2022-11-19T10:09:27.120Z,36.40
2022-11-19T10:12:14.933Z,39.70
2022-11-19T10:15:06.593Z,33.10
2022-11-19T10:17:51.052Z,33.20
2022-11-19T10:20:36.429Z,31.50
2022-11-19T10:23:16.286Z,28.30
2022-11-19T10:25:50.398Z,30.10
2022-11-19T10:28:27.533Z,32.30
2022-11-19T10:31:13.821Z,38.30
2022-11-19T10:33:51.651Z,35.30
2022-11-19T10:36:30.679Z,35.50
2022-11-19T10:39:08.982Z,31.20
2022-11-19T10:41:47.508Z,36.90
2022-11-19T10:44:40.465Z,33.20
2022-11-19T10:49:52.236Z,39.50
2022-11-19T10:52:32.092Z,36.80
2022-11-19T10:55:14.043Z,35.70
2022-11-19T10:57:49.815Z,42.30
2022-11-19T11:00:22.185Z,34.50
2022-11-19T11:02:59.303Z,34.50
2022-11-19T11:05:32.108Z,36.30
2022-11-19T11:08:12.931Z,38.80
2022-11-19T11:10:48.128Z,37.30
2022-11-19T11:13:58.907Z,34.30
2022-11-19T11:16:45.305Z,32.50
2022-11-19T11:19:19.917Z,31.60
2022-11-19T11:21:54.819Z,34.50
2022-11-19T11:24:34.474Z,31.20
2022-11-19T11:27:23.387Z,35.00
2022-11-19T11:30:16.233Z,30.30
2022-11-19T11:32:48.081Z,28.40
2022-11-19T11:35:35.627Z,37.30
2022-11-19T11:38:07.913Z,25.30
2022-11-19T11:43:19.252Z,24.60
2022-11-19T11:45:59.999Z,28.10
2022-11-19T11:48:38.519Z,27.90
2022-11-19T11:51:23.835Z,29.00
2022-11-19T11:54:18.391Z,27.50
2022-11-19T11:56:50.769Z,33.10
2022-11-19T11:59:29.803Z,28.80
2022-11-19T12:02:07.845Z,27.80
2022-11-19T12:04:39.940Z,32.60
2022-11-19T12:07:19.648Z,31.30
2022-11-19T12:10:03.606Z,33.30
2022-11-19T12:12:41.517Z,28.50
2022-11-19T12:15:24.059Z,32.40
2022-11-19T12:18:02.194Z,33.10
2022-11-19T12:20:40.671Z,35.40
2022-11-19T12:23:34.650Z,32.80
2022-11-19T12:26:14.008Z,31.10
2022-11-19T12:29:04.267Z,43.00
2022-11-19T12:31:47.984Z,30.70
2022-11-19T12:34:41.463Z,29.70
2022-11-19T12:37:28.678Z,30.30
2022-11-19T12:40:15.351Z,26.70
2022-11-19T12:42:58.216Z,29.20
2022-11-19T12:45:42.486Z,29.10
2022-11-19T12:48:31.093Z,25.20
2022-11-19T12:51:13.021Z,27.80
2022-11-19T12:53:59.230Z,23.10
2022-11-19T12:56:43.584Z,26.20
2022-11-19T12:59:34.444Z,24.80
2022-11-19T13:02:16.309Z,28.10
2022-11-19T13:04:53.646Z,25.90
2022-11-19T13:07:30.237Z,19.90
2022-11-19T13:10:08.962Z,25.10
2022-11-19T13:12:46.953Z,21.70
2022-11-19T13:15:24.222Z,21.30
2022-11-19T13:17:59.221Z,25.40
2022-11-19T13:20:41.721Z,23.20
2022-11-19T13:23:20.939Z,20.60
2022-11-19T13:26:00.227Z,18.90
2022-11-19T13:28:37.562Z,18.20
2022-11-19T13:31:15.402Z,19.60
2022-11-19T13:33:52.219Z,19.80
2022-11-19T13:36:32.312Z,32.80
2022-11-19T13:39:13.473Z,20.40
2022-11-19T13:42:09.299Z,25.70
2022-11-19T13:44:42.067Z,28.40
2022-11-19T13:49:52.260Z,24.10
2022-11-19T13:52:31.102Z,27.70
2022-11-19T13:55:03.800Z,24.30
2022-11-19T14:00:22.035Z,25.70
2022-11-19T14:03:27.327Z,25.00
2022-11-19T14:06:15.346Z,25.90
2022-11-19T14:09:10.040Z,29.50
2022-11-19T14:12:09.216Z,25.20
2022-11-19T14:15:10.796Z,27.50
2022-11-19T14:18:06.354Z,30.70
2022-11-19T14:20:59.620Z,30.20
2022-11-19T14:24:04.439Z,26.40
2022-11-19T14:27:18.320Z,28.10
2022-11-19T14:30:02.127Z,33.30
2022-11-19T14:32:53.371Z,33.10
2022-11-19T14:35:40.065Z,39.90
2022-11-19T14:38:33.335Z,35.90
2022-11-19T14:41:25.596Z,37.20
2022-11-19T14:44:32.097Z,32.50
2022-11-19T14:47:33.798Z,44.80
2022-11-19T14:50:08.637Z,44.10
2022-11-19T14:52:52.422Z,49.60
2022-11-19T14:55:25.682Z,43.90
2022-11-19T14:58:02.718Z,39.10
2022-11-19T15:00:37.962Z,43.10
2022-11-19T15:03:15.005Z,49.20
2022-11-19T15:05:48.953Z,42.10
2022-11-19T15:08:50.407Z,41.60
2022-11-19T15:11:22.581Z,44.10
2022-11-19T15:14:38.334Z,44.20
2022-11-19T15:17:12.861Z,48.40
2022-11-19T15:19:55.567Z,47.50
2022-11-19T15:22:53.006Z,44.60
2022-11-19T15:25:37.063Z,45.60
2022-11-19T15:28:24.313Z,45.30
2022-11-19T15:31:23.507Z,45.40
2022-11-19T15:34:18.108Z,47.50
2022-11-19T15:36:53.331Z,45.30
2022-11-19T15:39:31.732Z,53.00
2022-11-19T15:42:07.604Z,50.70
2022-11-19T15:44:47.313Z,44.90
2022-11-19T15:47:23.318Z,50.10
2022-11-19T15:49:58.555Z,51.50
2022-11-19T15:52:32.118Z,49.60
2022-11-19T15:55:22.542Z,52.00
2022-11-19T15:57:56.508Z,51.80
2022-11-19T16:00:29.465Z,50.50
2022-11-19T16:03:01.935Z,50.70
2022-11-19T16:05:34.127Z,55.10
2022-11-19T16:08:12.052Z,42.00
2022-11-19T16:10:47.579Z,46.50
2022-11-19T16:13:44.744Z,51.20
2022-11-19T16:16:43.858Z,43.30
2022-11-19T16:19:18.714Z,51.00
2022-11-19T16:21:55.832Z,41.10
2022-11-19T16:24:47.938Z,42.70
2022-11-19T16:27:24.633Z,49.90
2022-11-19T16:29:56.905Z,44.70
2022-11-19T16:32:29.648Z,43.00
2022-11-19T16:35:20.466Z,42.00
2022-11-19T16:37:53.647Z,40.00
2022-11-19T16:40:26.056Z,38.90
2022-11-19T16:43:01.508Z,39.50
2022-11-19T16:45:34.658Z,42.60
2022-11-19T16:48:06.749Z,39.70
2022-11-19T16:50:45.328Z,40.20
2022-11-19T16:53:48.116Z,47.30
2022-11-19T16:56:20.186Z,39.60
2022-11-19T16:58:55.753Z,45.40
2022-11-19T17:01:29.847Z,43.90
2022-11-19T17:04:08.149Z,42.60
2022-11-19T17:06:43.581Z,55.10
2022-11-19T17:09:41.683Z,50.10
2022-11-19T17:12:39.403Z,56.80
2022-11-19T17:15:40.649Z,57.10
2022-11-19T17:18:19.135Z,67.40
2022-11-19T17:20:53.646Z,60.30
2022-11-19T17:23:27.902Z,56.60
2022-11-19T17:26:01.640Z,62.70
2022-11-19T17:28:40.844Z,57.50
2022-11-19T17:31:20.302Z,47.70
2022-11-19T17:33:54.842Z,51.60
2022-11-19T17:36:27.652Z,48.20
2022-11-19T17:38:59.875Z,56.10
2022-11-19T17:41:50.083Z,44.50
2022-11-19T17:44:39.290Z,41.50
2022-11-19T17:47:22.849Z,45.70
2022-11-19T17:49:55.567Z,40.80
2022-11-19T17:52:29.938Z,48.00
2022-11-19T17:55:15.164Z,46.90
2022-11-19T17:57:46.921Z,39.00
2022-11-19T18:00:19.372Z,40.80
2022-11-19T18:02:51.934Z,39.00
2022-11-19T18:05:26.834Z,43.80
2022-11-19T18:07:58.576Z,46.90
2022-11-19T18:10:30.256Z,43.10
2022-11-19T18:13:02.076Z,43.20
2022-11-19T18:15:33.799Z,49.60
2022-11-19T18:18:05.613Z,43.80
2022-11-19T18:20:37.581Z,39.50
2022-11-19T18:23:12.695Z,42.70
2022-11-19T18:25:44.544Z,43.60
2022-11-19T18:28:16.240Z,37.50
2022-11-19T18:30:47.911Z,30.10
2022-11-19T18:33:21.050Z,38.40
2022-11-19T18:35:52.796Z,37.20
2022-11-19T18:38:24.747Z,29.20
2022-11-19T18:40:56.488Z,47.40
2022-11-19T18:43:46.095Z,37.10
2022-11-19T18:46:17.756Z,33.60
2022-11-19T18:48:49.494Z,27.00
2022-11-19T18:51:21.943Z,33.70
2022-11-19T18:53:53.813Z,35.90
2022-11-19T18:56:25.510Z,37.30
2022-11-19T18:59:03.218Z,34.10
2022-11-19T19:01:36.731Z,34.40
2022-11-19T19:04:09.767Z,37.90
2022-11-19T19:06:42.278Z,33.70
2022-11-19T19:09:20.240Z,39.10
2022-11-19T19:12:13.407Z,39.20
2022-11-19T19:14:47.053Z,39.40
2022-11-19T19:17:19.022Z,36.00
2022-11-19T19:19:50.867Z,38.00
2022-11-19T19:22:22.889Z,37.30
2022-11-19T19:24:58.110Z,40.50
2022-11-19T19:27:30.702Z,38.80
2022-11-19T19:30:02.729Z,26.60
2022-11-19T19:32:34.421Z,29.00
2022-11-19T19:35:07.304Z,33.10
2022-11-19T19:37:39.937Z,34.90
2022-11-19T19:42:43.692Z,42.30
2022-11-19T19:45:15.556Z,30.00
2022-11-19T19:47:47.603Z,33.60
2022-11-19T19:50:20.060Z,33.10
2022-11-19T19:52:52.178Z,30.80
2022-11-19T19:55:24.220Z,38.60
2022-11-19T19:57:56.386Z,24.90
2022-11-19T20:00:28.301Z,35.60
2022-11-19T20:03:00.091Z,32.40
2022-11-19T20:05:31.813Z,38.50
2022-11-19T20:08:03.914Z,45.00
2022-11-19T20:10:35.786Z,43.00
2022-11-19T20:13:25.293Z,39.80
2022-11-19T20:15:59.637Z,41.50
2022-11-19T20:18:32.896Z,38.40
2022-11-19T20:21:05.439Z,42.20
2022-11-19T20:23:37.891Z,33.80
2022-11-19T20:26:12.247Z,36.90
2022-11-19T20:28:44.907Z,41.70
2022-11-19T20:31:18.438Z,38.30
2022-11-19T20:33:55.339Z,36.60
2022-11-19T20:36:29.207Z,40.60
2022-11-19T20:39:01.830Z,45.60
2022-11-19T20:44:23.102Z,33.60
2022-11-19T20:46:57.279Z,35.50
2022-11-19T20:49:31.663Z,34.20
2022-11-19T20:52:04.439Z,37.40
2022-11-19T20:54:37.201Z,31.20
2022-11-19T20:59:39.805Z,24.20
2022-11-19T21:02:14.703Z,31.10
2022-11-19T21:04:46.739Z,31.20
2022-11-19T21:07:18.842Z,38.50
2022-11-19T21:09:50.932Z,28.30
2022-11-19T21:12:23.957Z,35.80
2022-11-19T21:14:55.921Z,30.50
2022-11-19T21:17:28.785Z,24.70
2022-11-19T21:20:00.753Z,33.10
2022-11-19T21:22:32.584Z,34.30
2022-11-19T21:25:09.694Z,21.60
2022-11-19T21:27:44.185Z,28.30
2022-11-19T21:30:19.204Z,36.10
2022-11-19T21:32:50.994Z,30.50
2022-11-19T21:35:22.716Z,29.70
2022-11-19T21:37:54.750Z,31.30
2022-11-19T21:40:26.590Z,30.40
2022-11-19T21:42:58.365Z,22.80
2022-11-19T21:45:30.098Z,29.30
2022-11-19T21:48:01.904Z,34.10
2022-11-19T21:50:33.975Z,35.90
2022-11-19T21:53:05.978Z,31.00
2022-11-19T21:55:39.382Z,38.40
2022-11-19T21:58:13.131Z,28.20
2022-11-19T22:00:47.084Z,30.90
2022-11-19T22:03:18.924Z,37.50
2022-11-19T22:05:58.659Z,29.20
2022-11-19T22:08:32.843Z,35.10
2022-11-19T22:11:25.312Z,32.00
2022-11-19T22:13:58.869Z,29.20
2022-11-19T22:16:31.928Z,32.30
2022-11-19T22:19:03.904Z,33.40
2022-11-19T22:21:36.291Z,28.30
2022-11-19T22:24:09.065Z,30.90
2022-11-19T22:29:11.115Z,28.60
2022-11-19T22:31:42.907Z,29.70
2022-11-19T22:34:15.285Z,34.30
2022-11-19T22:36:47.035Z,31.70
2022-11-19T22:39:19.468Z,32.60
2022-11-19T22:41:51.699Z,33.10
2022-11-19T22:44:23.856Z,35.20
2022-11-19T22:46:58.558Z,33.90
2022-11-19T22:49:30.886Z,32.20
2022-11-19T22:52:02.589Z,29.30
2022-11-19T22:54:37.362Z,30.40
2022-11-19T22:57:13.649Z,30.10
2022-11-19T22:59:45.355Z,25.50
2022-11-19T23:02:19.530Z,31.00
2022-11-19T23:04:51.583Z,32.70
2022-11-19T23:07:23.362Z,28.30
2022-11-19T23:09:55.083Z,28.30
2022-11-19T23:12:44.499Z,29.00
2022-11-19T23:15:16.135Z,30.80
2022-11-19T23:17:48.355Z,23.20
2022-11-19T23:20:20.284Z,24.10
2022-11-19T23:22:51.968Z,24.90
2022-11-19T23:25:24.011Z,26.10
2022-11-19T23:27:55.862Z,23.60
2022-11-19T23:30:27.598Z,22.00
2022-11-19T23:32:59.302Z,23.30
2022-11-19T23:35:31.136Z,27.30
2022-11-19T23:38:02.892Z,23.80
2022-11-19T23:40:34.720Z,23.00
2022-11-19T23:43:07.381Z,30.00
2022-11-19T23:45:39.069Z,26.50
2022-11-19T23:48:11.035Z,25.00
2022-11-19T23:50:42.748Z,22.00
2022-11-19T23:53:14.502Z,27.00
2022-11-19T23:55:49.467Z,24.90
2022-11-19T23:58:21.319Z,29.70
